Limbourg, Belgium
Current Conditions -  °F | °C
As of 7:43 PM on Saturday 20 Dec 2014 (Local Time) from EBLB Reporting Station
Broken Clouds Broken Clouds  
Wind Chill: 28°   Ceiling: 1800
Heat Index: 37°   Visibility: 6mi
Dew Point: 34°   Wind: 16mph
Humidity: 87%   Direction: 290°WNW
Pressure: 30.24"   Gusts: NA
Location:  50.61°N, 5.94°E
Report Text: EBLB 201843Z AUTO 29014KT 9999 FEW010/// SCT015/// BKN018/// 03/01 Q1024 WHT
Loading
Personal Weather Stations






























Interactive Weather Map New forecast layout! Learn more

10-Day Weather Forecast

Advertisements
Track Severe Weather on mobile